Cipotanea, Brazil
Current Conditions -  °F | °C
As of 12:00 PM on Thursday 30 Oct 2014 (Local Time) from SBBQ Reporting Station
Light Rain Light Rain  
Wind Chill: 73°   Ceiling: 3000
Heat Index: 73°   Visibility: 6mi
Dew Point: 61°   Wind: 8mph
Humidity: 65%   Direction: 320°NW
Pressure: 30.09"   Gusts: NA
Location:  20.91°S, 43.37°W
Report Text: SBBQ 301400Z 32007KT 9999 -RA BKN030 23/16 Q1019
Loading
Personal Weather Stations






























Interactive Weather Map
Tropical Storm Tracking
New forecast layout! Learn more

10-Day Weather Forecast

Advertisements
Track Severe Weather on mobile